ジュネーヴ の空港の天気 - METARとTAF

ジュネーヴ・コアントラン国際空港 ( LSGG / GVA ) - スイス ジュネーヴ
飛行場実況気象(Metar)
観測時間08/19 01:50 CEST (08/18 23:50 UTC)
風向・風速不定 1m/s
視程10km以上
天気現象
なし
気温18℃
湿度83%
気圧1022hPa
METARLSGG 182350Z AUTO VRB01KT CAVOK 18/15 Q1022 NOSIG
過去の天気等 Google飛行場航空写真 Wunderground天気予報

過去48時間のMETAR

飛行場予報(TAF)
発表時間: 8/19 01:25 CEST (8/18 23:25 UTC)
予報対象時間: 19日2時 CEST ~ 20日8時 CEST
風向・風速不定 2m/s
視程10km以上
なし
19日12時 CEST ~ 19日14時 CEST に徐々に
風向・風速北東 4m/s
視程10km以上
少しの雲 雲底高度 1520m
19日14時 CEST ~ 19日20時 CEST に 確率 30% で一時的に
少しの塔状積雲 雲底高度 1220m
全天の4割程度の雲 雲底高度 2130m
19日19時 CEST ~ 19日22時 CEST に徐々に
風向・風速不定 2m/s
視程10km以上
なし
TAF LSGG 182325Z 1900/2006 VRB03KT CAVOK TX29/1915Z TN15/1905Z TN15/2005Z
BECMG 1910/1912 05007KT 9999 FEW050
PROB30 TEMPO 1912/1918 FEW040TCU SCT070
BECMG 1917/1920 VRB03KT CAVOK